sensor_id;sensor_type;location;lat;lon;timestamp;pressure;altitude;pressure_sealevel;temperature;humidity
11523;BME280;40093;43.224;27.910;2023-01-25T00:00:28;102136.78;;;2.74;100.00
11523;BME280;40093;43.224;27.910;2023-01-25T00:02:55;102129.31;;;2.90;100.00
11523;BME280;40093;43.224;27.910;2023-01-25T00:05:23;102122.84;;;2.86;100.00
11523;BME280;40093;43.224;27.910;2023-01-25T00:07:49;102127.41;;;2.62;100.00
11523;BME280;40093;43.224;27.910;2023-01-25T00:10:18;102127.41;;;2.62;100.00
11523;BME280;40093;43.224;27.910;2023-01-25T00:12:45;102122.50;;;2.59;100.00
11523;BME280;40093;43.224;27.910;2023-01-25T00:15:12;102114.50;;;2.77;100.00
11523;BME280;40093;43.224;27.910;2023-01-25T00:17:39;102117.44;;;2.81;100.00
11523;BME280;40093;43.224;27.910;2023-01-25T00:20:07;102107.22;;;2.96;100.00
11523;BME280;40093;43.224;27.910;2023-01-25T00:22:34;102102.56;;;3.02;100.00
11523;BME280;40093;43.224;27.910;2023-01-25T00:25:01;102104.94;;;3.08;100.00
11523;BME280;40093;43.224;27.910;2023-01-25T00:27:29;102103.03;;;3.09;100.00
11523;BME280;40093;43.224;27.910;2023-01-25T00:29:56;102090.28;;;3.04;100.00
11523;BME280;40093;43.224;27.910;2023-01-25T00:32:57;102095.81;;;2.99;100.00
11523;BME280;40093;43.224;27.910;2023-01-25T00:35:29;102095.13;;;3.12;100.00
11523;BME280;40093;43.224;27.910;2023-01-25T00:37:56;102092.56;;;3.21;100.00
11523;BME280;40093;43.224;27.910;2023-01-25T00:40:22;102092.28;;;3.22;100.00
11523;BME280;40093;43.224;27.910;2023-01-25T00:42:51;102095.25;;;2.97;100.00
11523;BME280;40093;43.224;27.910;2023-01-25T00:45:17;102102.19;;;2.85;100.00
11523;BME280;40093;43.224;27.910;2023-01-25T00:47:44;102090.03;;;2.77;100.00
11523;BME280;40093;43.224;27.910;2023-01-25T00:50:11;102098.38;;;2.86;100.00
11523;BME280;40093;43.224;27.910;2023-01-25T00:52:38;102094.72;;;2.95;100.00
11523;BME280;40093;43.224;27.910;2023-01-25T00:55:06;102097.66;;;3.04;100.00
11523;BME280;40093;43.224;27.910;2023-01-25T00:57:33;102098.72;;;3.03;100.00
11523;BME280;40093;43.224;27.910;2023-01-25T01:00:02;102094.47;;;2.97;100.00
11523;BME280;40093;43.224;27.910;2023-01-25T01:02:29;102096.66;;;2.95;100.00
11523;BME280;40093;43.224;27.910;2023-01-25T01:04:57;102088.59;;;2.85;100.00
11523;BME280;40093;43.224;27.910;2023-01-25T01:07:23;102090.66;;;2.64;100.00
11523;BME280;40093;43.224;27.910;2023-01-25T01:09:50;102081.88;;;2.44;100.00
11523;BME280;40093;43.224;27.910;2023-01-25T01:12:17;102086.66;;;2.57;100.00
11523;BME280;40093;43.224;27.910;2023-01-25T01:14:44;102085.63;;;2.53;100.00
11523;BME280;40093;43.224;27.910;2023-01-25T01:17:13;102077.88;;;2.32;100.00
11523;BME280;40093;43.224;27.910;2023-01-25T01:19:40;102080.84;;;2.35;100.00
11523;BME280;40093;43.224;27.910;2023-01-25T01:22:07;102082.41;;;2.46;100.00
11523;BME280;40093;43.224;27.910;2023-01-25T01:24:34;102080.13;;;2.58;100.00
11523;BME280;40093;43.224;27.910;2023-01-25T01:27:01;102072.47;;;2.65;100.00
11523;BME280;40093;43.224;27.910;2023-01-25T01:29:28;102073.72;;;2.77;100.00
11523;BME280;40093;43.224;27.910;2023-01-25T01:31:54;102078.28;;;2.82;100.00
11523;BME280;40093;43.224;27.910;2023-01-25T01:34:23;102073.22;;;2.99;100.00
11523;BME280;40093;43.224;27.910;2023-01-25T01:36:50;102081.28;;;3.09;100.00
11523;BME280;40093;43.224;27.910;2023-01-25T01:39:17;102079.53;;;2.94;100.00
11523;BME280;40093;43.224;27.910;2023-01-25T01:41:44;102077.28;;;2.73;100.00
11523;BME280;40093;43.224;27.910;2023-01-25T01:44:15;102067.13;;;2.55;100.00
11523;BME280;40093;43.224;27.910;2023-01-25T01:46:46;102055.56;;;2.68;100.00
11523;BME280;40093;43.224;27.910;2023-01-25T01:49:17;102055.56;;;2.68;100.00
11523;BME280;40093;43.224;27.910;2023-01-25T01:51:48;102061.19;;;2.48;100.00
11523;BME280;40093;43.224;27.910;2023-01-25T01:54:20;102061.75;;;2.45;100.00
11523;BME280;40093;43.224;27.910;2023-01-25T01:56:54;102050.22;;;2.58;100.00
11523;BME280;40093;43.224;27.910;2023-01-25T01:59:26;102040.69;;;2.32;100.00
11523;BME280;40093;43.224;27.910;2023-01-25T02:01:55;102059.97;;;2.31;100.00
11523;BME280;40093;43.224;27.910;2023-01-25T02:04:23;102049.09;;;2.36;100.00
11523;BME280;40093;43.224;27.910;2023-01-25T02:06:56;102055.13;;;2.61;100.00
11523;BME280;40093;43.224;27.910;2023-01-25T02:09:27;102047.25;;;2.59;100.00
11523;BME280;40093;43.224;27.910;2023-01-25T02:11:55;102050.81;;;2.55;100.00
11523;BME280;40093;43.224;27.910;2023-01-25T02:14:26;102052.75;;;2.49;100.00
11523;BME280;40093;43.224;27.910;2023-01-25T02:16:53;102048.13;;;2.50;100.00
11523;BME280;40093;43.224;27.910;2023-01-25T02:19:30;102039.94;;;2.55;100.00
11523;BME280;40093;43.224;27.910;2023-01-25T02:22:07;102045.59;;;2.30;100.00
11523;BME280;40093;43.224;27.910;2023-01-25T02:24:36;102042.78;;;2.07;100.00
11523;BME280;40093;43.224;27.910;2023-01-25T02:27:06;102047.84;;;2.18;100.00
11523;BME280;40093;43.224;27.910;2023-01-25T02:29:33;102039.09;;;2.26;100.00
11523;BME280;40093;43.224;27.910;2023-01-25T02:32:02;102040.69;;;2.32;100.00
11523;BME280;40093;43.224;27.910;2023-01-25T02:34:30;102036.03;;;2.33;100.00
11523;BME280;40093;43.224;27.910;2023-01-25T02:36:57;102031.94;;;2.40;100.00
11523;BME280;40093;43.224;27.910;2023-01-25T02:39:26;102031.03;;;2.49;100.00
11523;BME280;40093;43.224;27.910;2023-01-25T02:41:53;102027.78;;;2.47;100.00
11523;BME280;40093;43.224;27.910;2023-01-25T02:44:24;102022.13;;;2.39;100.00
11523;BME280;40093;43.224;27.910;2023-01-25T02:46:51;102028.19;;;2.31;100.00
11523;BME280;40093;43.224;27.910;2023-01-25T02:49:18;102030.78;;;2.46;100.00
11523;BME280;40093;43.224;27.910;2023-01-25T02:51:48;102037.25;;;2.50;100.00
11523;BME280;40093;43.224;27.910;2023-01-25T02:54:17;102030.25;;;2.44;100.00
11523;BME280;40093;43.224;27.910;2023-01-25T02:56:44;102032.69;;;2.45;100.00
11523;BME280;40093;43.224;27.910;2023-01-25T02:59:11;102030.50;;;2.47;100.00
11523;BME280;40093;43.224;27.910;2023-01-25T03:01:42;102036.72;;;2.48;100.00
11523;BME280;40093;43.224;27.910;2023-01-25T03:04:09;102035.31;;;2.55;100.00
11523;BME280;40093;43.224;27.910;2023-01-25T03:06:37;102023.47;;;2.41;100.00
11523;BME280;40093;43.224;27.910;2023-01-25T03:09:06;102028.13;;;2.41;100.00
11523;BME280;40093;43.224;27.910;2023-01-25T03:11:33;101995.13;;;2.24;100.00
11523;BME280;40093;43.224;27.910;2023-01-25T03:14:01;102028.66;;;2.38;100.00
11523;BME280;40093;43.224;27.910;2023-01-25T03:16:29;102029.50;;;2.38;100.00
11523;BME280;40093;43.224;27.910;2023-01-25T03:18:58;102034.00;;;2.48;100.00
11523;BME280;40093;43.224;27.910;2023-01-25T03:21:25;102029.66;;;2.52;100.00
11523;BME280;40093;43.224;27.910;2023-01-25T03:23:58;102040.69;;;2.60;100.00
11523;BME280;40093;43.224;27.910;2023-01-25T03:26:28;102035.00;;;2.62;100.00
11523;BME280;40093;43.224;27.910;2023-01-25T03:28:55;102039.34;;;2.63;100.00
11523;BME280;40093;43.224;27.910;2023-01-25T03:31:22;102035.88;;;2.52;100.00
11523;BME280;40093;43.224;27.910;2023-01-25T03:33:49;102035.41;;;2.45;100.00
11523;BME280;40093;43.224;27.910;2023-01-25T03:36:17;102034.25;;;2.51;100.00
11523;BME280;40093;43.224;27.910;2023-01-25T03:38:44;102027.97;;;2.56;100.00
11523;BME280;40093;43.224;27.910;2023-01-25T03:41:11;102038.13;;;2.74;100.00
11523;BME280;40093;43.224;27.910;2023-01-25T03:43:39;102034.31;;;2.75;100.00
11523;BME280;40093;43.224;27.910;2023-01-25T03:46:06;102031.63;;;2.70;100.00
11523;BME280;40093;43.224;27.910;2023-01-25T03:48:33;102032.72;;;2.69;100.00
11523;BME280;40093;43.224;27.910;2023-01-25T03:51:00;102031.63;;;2.70;100.00
11523;BME280;40093;43.224;27.910;2023-01-25T03:53:29;102018.19;;;2.55;100.00
11523;BME280;40093;43.224;27.910;2023-01-25T03:55:59;102025.50;;;2.59;100.00
11523;BME280;40093;43.224;27.910;2023-01-25T03:58:26;102021.78;;;2.50;100.00
11523;BME280;40093;43.224;27.910;2023-01-25T04:00:54;102024.75;;;2.49;100.00
11523;BME280;40093;43.224;27.910;2023-01-25T04:03:22;102019.88;;;2.51;100.00
11523;BME280;40093;43.224;27.910;2023-01-25T04:05:50;102017.16;;;2.51;100.00
11523;BME280;40093;43.224;27.910;2023-01-25T04:08:17;102020.34;;;2.58;100.00
11523;BME280;40093;43.224;27.910;2023-01-25T04:10:49;102025.22;;;2.61;100.00
11523;BME280;40093;43.224;27.910;2023-01-25T04:13:16;102019.91;;;2.46;100.00
11523;BME280;40093;43.224;27.910;2023-01-25T04:15:43;102025.09;;;2.42;100.00
11523;BME280;40093;43.224;27.910;2023-01-25T04:18:10;102027.22;;;2.50;100.00
11523;BME280;40093;43.224;27.910;2023-01-25T04:20:37;102026.88;;;2.57;100.00
11523;BME280;40093;43.224;27.910;2023-01-25T04:23:03;102022.50;;;2.61;100.00
11523;BME280;40093;43.224;27.910;2023-01-25T04:25:33;102032.19;;;2.72;100.00
11523;BME280;40093;43.224;27.910;2023-01-25T04:28:02;102026.88;;;2.57;100.00
11523;BME280;40093;43.224;27.910;2023-01-25T04:30:29;102023.66;;;2.50;100.00
11523;BME280;40093;43.224;27.910;2023-01-25T04:32:59;102030.69;;;2.56;100.00
11523;BME280;40093;43.224;27.910;2023-01-25T04:35:27;102021.94;;;2.64;100.00
11523;BME280;40093;43.224;27.910;2023-01-25T04:37:54;102013.47;;;2.65;100.00
11523;BME280;40093;43.224;27.910;2023-01-25T04:40:22;102019.72;;;2.66;100.00
11523;BME280;40093;43.224;27.910;2023-01-25T04:42:49;102021.09;;;2.63;100.00
11523;BME280;40093;43.224;27.910;2023-01-25T04:45:17;102011.63;;;2.61;100.00
11523;BME280;40093;43.224;27.910;2023-01-25T04:47:44;102011.09;;;2.59;100.00
11523;BME280;40093;43.224;27.910;2023-01-25T04:50:11;102011.19;;;2.49;100.00
11523;BME280;40093;43.224;27.910;2023-01-25T04:52:38;102017.09;;;2.56;100.00
11523;BME280;40093;43.224;27.910;2023-01-25T04:55:05;102005.03;;;2.38;100.00
11523;BME280;40093;43.224;27.910;2023-01-25T04:57:33;102008.09;;;2.32;100.00
11523;BME280;40093;43.224;27.910;2023-01-25T05:00:01;102020.25;;;2.39;100.00
11523;BME280;40093;43.224;27.910;2023-01-25T05:02:41;102021.00;;;2.45;100.00
11523;BME280;40093;43.224;27.910;2023-01-25T05:05:08;102011.38;;;2.29;100.00
11523;BME280;40093;43.224;27.910;2023-01-25T05:07:35;102016.84;;;2.24;100.00
11523;BME280;40093;43.224;27.910;2023-01-25T05:10:03;102005.38;;;2.32;100.00
11523;BME280;40093;43.224;27.910;2023-01-25T05:12:30;102024.38;;;2.32;100.00
11523;BME280;40093;43.224;27.910;2023-01-25T05:14:57;102015.13;;;2.33;100.00
11523;BME280;40093;43.224;27.910;2023-01-25T05:17:24;102024.03;;;2.10;100.00
11523;BME280;40093;43.224;27.910;2023-01-25T05:19:52;102014.88;;;1.96;100.00
11523;BME280;40093;43.224;27.910;2023-01-25T05:22:19;102011.69;;;1.84;100.00
11523;BME280;40093;43.224;27.910;2023-01-25T05:24:46;102012.97;;;1.97;100.00
11523;BME280;40093;43.224;27.910;2023-01-25T05:27:17;102009.16;;;1.98;100.00
11523;BME280;40093;43.224;27.910;2023-01-25T05:29:44;102016.41;;;2.07;100.00
11523;BME280;40093;43.224;27.910;2023-01-25T05:32:13;102000.13;;;2.07;100.00
11523;BME280;40093;43.224;27.910;2023-01-25T05:34:40;102000.25;;;1.92;100.00
11523;BME280;40093;43.224;27.910;2023-01-25T05:37:10;102000.69;;;2.04;100.00
11523;BME280;40093;43.224;27.910;2023-01-25T05:39:37;102008.06;;;1.99;100.00
11523;BME280;40093;43.224;27.910;2023-01-25T05:42:08;101990.91;;;2.08;100.00
11523;BME280;40093;43.224;27.910;2023-01-25T05:44:36;101985.47;;;2.08;100.00
11523;BME280;40093;43.224;27.910;2023-01-25T05:47:02;102002.38;;;1.95;100.00
11523;BME280;40093;43.224;27.910;2023-01-25T05:49:29;101991.34;;;1.87;100.00
11523;BME280;40093;43.224;27.910;2023-01-25T05:51:56;101997.97;;;2.04;100.00
11523;BME280;40093;43.224;27.910;2023-01-25T05:54:25;102001.38;;;1.86;100.00
11523;BME280;40093;43.224;27.910;2023-01-25T05:56:51;101985.31;;;1.95;100.00
11523;BME280;40093;43.224;27.910;2023-01-25T05:59:18;101995.34;;;1.94;100.00
11523;BME280;40093;43.224;27.910;2023-01-25T06:01:45;101974.28;;;1.81;100.00
11523;BME280;40093;43.224;27.910;2023-01-25T06:04:14;101985.75;;;1.68;100.00
11523;BME280;40093;43.224;27.910;2023-01-25T06:06:41;101988.47;;;1.68;100.00
11523;BME280;40093;43.224;27.910;2023-01-25T06:09:09;101978.31;;;1.45;100.00
11523;BME280;40093;43.224;27.910;2023-01-25T06:11:38;101977.63;;;1.63;100.00
11523;BME280;40093;43.224;27.910;2023-01-25T06:14:05;101965.41;;;1.71;100.00
11523;BME280;40093;43.224;27.910;2023-01-25T06:16:32;101971.03;;;1.79;100.00
11523;BME280;40093;43.224;27.910;2023-01-25T06:18:59;101973.50;;;1.76;100.00
11523;BME280;40093;43.224;27.910;2023-01-25T06:21:26;101976.94;;;1.86;100.00
11523;BME280;40093;43.224;27.910;2023-01-25T06:23:53;101968.53;;;1.88;100.00
11523;BME280;40093;43.224;27.910;2023-01-25T06:26:20;101978.91;;;1.76;100.00
11523;BME280;40093;43.224;27.910;2023-01-25T06:28:48;101970.06;;;1.65;100.00
11523;BME280;40093;43.224;27.910;2023-01-25T06:31:16;101949.47;;;1.59;100.00
11523;BME280;40093;43.224;27.910;2023-01-25T06:33:47;101981.13;;;1.74;100.00
11523;BME280;40093;43.224;27.910;2023-01-25T06:36:16;101942.41;;;1.58;100.00
11523;BME280;40093;43.224;27.910;2023-01-25T06:38:47;101954.81;;;1.69;100.00
11523;BME280;40093;43.224;27.910;2023-01-25T06:41:14;101947.25;;;1.66;100.00
11523;BME280;40093;43.224;27.910;2023-01-25T06:43:41;101953.59;;;1.52;100.00
11523;BME280;40093;43.224;27.910;2023-01-25T06:46:10;101933.25;;;1.49;100.00
11523;BME280;40093;43.224;27.910;2023-01-25T06:48:37;101954.38;;;1.52;100.00
11523;BME280;40093;43.224;27.910;2023-01-25T06:51:06;101955.72;;;1.60;100.00
11523;BME280;40093;43.224;27.910;2023-01-25T06:53:34;101952.50;;;1.48;100.00
11523;BME280;40093;43.224;27.910;2023-01-25T06:56:04;101942.41;;;1.58;100.00
11523;BME280;40093;43.224;27.910;2023-01-25T06:58:31;101956.00;;;1.53;100.00
11523;BME280;40093;43.224;27.910;2023-01-25T07:01:00;101932.66;;;1.52;100.00
11523;BME280;40093;43.224;27.910;2023-01-25T07:03:29;101932.53;;;1.72;100.00
11523;BME280;40093;43.224;27.910;2023-01-25T07:05:57;101930.84;;;1.81;100.00
11523;BME280;40093;43.224;27.910;2023-01-25T07:08:24;101892.66;;;1.73;100.00
11523;BME280;40093;43.224;27.910;2023-01-25T07:10:55;101942.59;;;1.72;100.00
11523;BME280;40093;43.224;27.910;2023-01-25T07:13:22;101943.91;;;1.79;100.00
11523;BME280;40093;43.224;27.910;2023-01-25T07:15:54;101930.28;;;1.84;100.00
11523;BME280;40093;43.224;27.910;2023-01-25T07:18:21;101933.69;;;1.66;100.00
11523;BME280;40093;43.224;27.910;2023-01-25T07:20:49;101918.50;;;1.65;100.00
11523;BME280;40093;43.224;27.910;2023-01-25T07:23:16;101910.16;;;1.85;100.00
11523;BME280;40093;43.224;27.910;2023-01-25T07:25:44;101930.91;;;1.76;100.00
11523;BME280;40093;43.224;27.910;2023-01-25T07:28:11;101894.97;;;1.89;100.00
11523;BME280;40093;43.224;27.910;2023-01-25T07:30:39;101922.28;;;1.98;100.00
11523;BME280;40093;43.224;27.910;2023-01-25T07:33:06;101915.16;;;2.07;100.00
11523;BME280;40093;43.224;27.910;2023-01-25T07:35:33;101908.91;;;2.06;100.00
11523;BME280;40093;43.224;27.910;2023-01-25T07:38:01;101887.28;;;1.96;100.00
11523;BME280;40093;43.224;27.910;2023-01-25T07:40:28;101924.25;;;1.92;100.00
11523;BME280;40093;43.224;27.910;2023-01-25T07:42:55;101931.53;;;2.25;100.00
11523;BME280;40093;43.224;27.910;2023-01-25T07:45:23;101930.97;;;2.28;100.00
11523;BME280;40093;43.224;27.910;2023-01-25T07:47:55;101902.38;;;2.36;100.00
11523;BME280;40093;43.224;27.910;2023-01-25T07:50:22;101932.44;;;2.44;100.00
11523;BME280;40093;43.224;27.910;2023-01-25T07:52:49;101942.38;;;2.53;100.00
11523;BME280;40093;43.224;27.910;2023-01-25T07:55:17;101947.34;;;2.18;100.00
11523;BME280;40093;43.224;27.910;2023-01-25T07:57:44;101938.47;;;2.41;100.00
11523;BME280;40093;43.224;27.910;2023-01-25T08:00:11;101943.03;;;2.45;100.00
11523;BME280;40093;43.224;27.910;2023-01-25T08:02:39;101937.03;;;2.48;100.00
11523;BME280;40093;43.224;27.910;2023-01-25T08:05:06;101939.22;;;2.46;100.00
11523;BME280;40093;43.224;27.910;2023-01-25T08:07:33;101942.56;;;2.38;100.00
11523;BME280;40093;43.224;27.910;2023-01-25T08:10:00;101938.56;;;2.31;100.00
11523;BME280;40093;43.224;27.910;2023-01-25T08:12:28;101949.84;;;2.43;100.00
11523;BME280;40093;43.224;27.910;2023-01-25T08:14:55;101948.13;;;2.52;100.00
11523;BME280;40093;43.224;27.910;2023-01-25T08:17:22;101949.75;;;2.53;100.00
11523;BME280;40093;43.224;27.910;2023-01-25T08:19:49;101931.25;;;2.55;100.00
11523;BME280;40093;43.224;27.910;2023-01-25T08:22:16;101957.59;;;2.54;100.00
11523;BME280;40093;43.224;27.910;2023-01-25T08:24:43;101981.25;;;2.54;100.00
11523;BME280;40093;43.224;27.910;2023-01-25T08:27:09;101971.03;;;2.69;100.00
11523;BME280;40093;43.224;27.910;2023-01-25T08:29:38;101969.19;;;2.65;100.00
11523;BME280;40093;43.224;27.910;2023-01-25T08:32:05;101979.72;;;2.71;100.00
11523;BME280;40093;43.224;27.910;2023-01-25T08:34:32;101970.69;;;2.76;100.00
11523;BME280;40093;43.224;27.910;2023-01-25T08:37:00;101963.19;;;2.91;100.00
11523;BME280;40093;43.224;27.910;2023-01-25T08:39:27;101959.59;;;2.96;100.00
11523;BME280;40093;43.224;27.910;2023-01-25T08:41:53;101961.56;;;2.90;100.00
11523;BME280;40093;43.224;27.910;2023-01-25T08:44:20;101969.75;;;2.85;100.00
11523;BME280;40093;43.224;27.910;2023-01-25T08:46:52;101949.41;;;2.59;100.00
11523;BME280;40093;43.224;27.910;2023-01-25T08:49:19;101956.34;;;2.70;100.00
11523;BME280;40093;43.224;27.910;2023-01-25T08:51:45;101944.88;;;2.50;100.00
11523;BME280;40093;43.224;27.910;2023-01-25T08:54:15;101948.03;;;2.62;100.00
11523;BME280;40093;43.224;27.910;2023-01-25T08:56:42;101941.06;;;2.74;100.00
11523;BME280;40093;43.224;27.910;2023-01-25T08:59:10;101947.34;;;2.75;100.00
11523;BME280;40093;43.224;27.910;2023-01-25T09:01:37;101951.94;;;2.74;100.00
11523;BME280;40093;43.224;27.910;2023-01-25T09:04:06;101930.44;;;2.78;100.00
11523;BME280;40093;43.224;27.910;2023-01-25T09:06:32;101936.66;;;3.02;100.00
11523;BME280;40093;43.224;27.910;2023-01-25T09:08:59;101932.28;;;3.06;100.00
11523;BME280;40093;43.224;27.910;2023-01-25T09:11:27;101935.97;;;3.15;100.00
11523;BME280;40093;43.224;27.910;2023-01-25T09:13:54;101926.63;;;3.21;100.00
11523;BME280;40093;43.224;27.910;2023-01-25T09:16:22;101917.25;;;3.08;100.00
11523;BME280;40093;43.224;27.910;2023-01-25T09:18:54;101946.66;;;3.30;100.00
11523;BME280;40093;43.224;27.910;2023-01-25T09:21:23;101943.78;;;3.40;100.00
11523;BME280;40093;43.224;27.910;2023-01-25T09:23:51;101936.97;;;3.42;100.00
11523;BME280;40093;43.224;27.910;2023-01-25T09:26:18;101933.03;;;3.48;100.00
11523;BME280;40093;43.224;27.910;2023-01-25T09:28:46;101912.53;;;3.37;100.00
11523;BME280;40093;43.224;27.910;2023-01-25T09:31:15;101914.59;;;3.45;100.00
11523;BME280;40093;43.224;27.910;2023-01-25T09:33:47;101908.31;;;3.45;100.00
11523;BME280;40093;43.224;27.910;2023-01-25T09:36:16;101920.31;;;3.25;100.00
11523;BME280;40093;43.224;27.910;2023-01-25T09:38:44;101893.84;;;3.49;100.00
11523;BME280;40093;43.224;27.910;2023-01-25T09:41:21;101901.22;;;3.49;100.00
11523;BME280;40093;43.224;27.910;2023-01-25T09:44:06;101893.59;;;3.46;100.00
11523;BME280;40093;43.224;27.910;2023-01-25T09:46:40;101866.84;;;3.53;100.00
11523;BME280;40093;43.224;27.910;2023-01-25T09:49:20;101901.75;;;3.83;100.00
11523;BME280;40093;43.224;27.910;2023-01-25T09:51:59;101891.38;;;3.85;100.00
11523;BME280;40093;43.224;27.910;2023-01-25T09:54:32;101895.47;;;4.01;100.00
11523;BME280;40093;43.224;27.910;2023-01-25T09:57:03;101885.38;;;4.01;100.00
11523;BME280;40093;43.224;27.910;2023-01-25T09:59:30;101896.22;;;3.88;100.00
11523;BME280;40093;43.224;27.910;2023-01-25T10:02:00;101876.19;;;3.65;100.00
11523;BME280;40093;43.224;27.910;2023-01-25T10:04:29;101879.03;;;3.74;100.00
11523;BME280;40093;43.224;27.910;2023-01-25T10:07:09;101867.97;;;3.84;100.00
11523;BME280;40093;43.224;27.910;2023-01-25T10:09:42;101870.59;;;3.57;100.00
11523;BME280;40093;43.224;27.910;2023-01-25T10:12:15;101848.28;;;3.55;100.00
11523;BME280;40093;43.224;27.910;2023-01-25T10:14:45;101874.56;;;3.64;100.00
11523;BME280;40093;43.224;27.910;2023-01-25T10:17:19;101877.84;;;3.80;100.00
11523;BME280;40093;43.224;27.910;2023-01-25T10:19:59;101864.97;;;3.85;100.00
11523;BME280;40093;43.224;27.910;2023-01-25T10:22:32;101825.19;;;3.71;100.00
11523;BME280;40093;43.224;27.910;2023-01-25T10:25:18;101849.34;;;3.59;100.00
11523;BME280;40093;43.224;27.910;2023-01-25T10:27:56;101864.38;;;3.38;100.00
11523;BME280;40093;43.224;27.910;2023-01-25T10:30:26;101875.31;;;3.33;100.00
11523;BME280;40093;43.224;27.910;2023-01-25T10:32:56;101857.47;;;3.27;100.00
11523;BME280;40093;43.224;27.910;2023-01-25T10:35:27;101817.75;;;3.26;100.00
11523;BME280;40093;43.224;27.910;2023-01-25T10:37:58;101834.22;;;3.16;100.00
11523;BME280;40093;43.224;27.910;2023-01-25T10:40:33;101831.34;;;3.07;100.00
11523;BME280;40093;43.224;27.910;2023-01-25T10:43:09;101823.25;;;3.21;100.00
11523;BME280;40093;43.224;27.910;2023-01-25T10:45:39;101817.59;;;3.36;100.00
11523;BME280;40093;43.224;27.910;2023-01-25T10:48:12;101842.75;;;3.28;100.00
11523;BME280;40093;43.224;27.910;2023-01-25T10:50:44;101828.41;;;3.22;100.00
11523;BME280;40093;43.224;27.910;2023-01-25T10:53:23;101788.34;;;3.28;100.00
11523;BME280;40093;43.224;27.910;2023-01-25T10:56:16;101829.56;;;3.35;100.00
11523;BME280;40093;43.224;27.910;2023-01-25T10:58:46;101833.22;;;3.44;100.00
11523;BME280;40093;43.224;27.910;2023-01-25T11:01:24;101820.91;;;3.51;100.00
11523;BME280;40093;43.224;27.910;2023-01-25T11:03:52;101793.03;;;3.41;100.00
11523;BME280;40093;43.224;27.910;2023-01-25T11:06:32;101816.47;;;3.55;100.00
11523;BME280;40093;43.224;27.910;2023-01-25T11:09:00;101800.91;;;3.56;100.00
11523;BME280;40093;43.224;27.910;2023-01-25T11:11:34;101806.34;;;3.42;100.00
11523;BME280;40093;43.224;27.910;2023-01-25T11:14:02;101797.13;;;3.57;100.00
11523;BME280;40093;43.224;27.910;2023-01-25T11:16:44;101795.66;;;3.46;100.00
11523;BME280;40093;43.224;27.910;2023-01-25T11:19:24;101774.63;;;3.33;100.00
11523;BME280;40093;43.224;27.910;2023-01-25T11:21:53;101795.84;;;3.36;100.00
11523;BME280;40093;43.224;27.910;2023-01-25T11:24:25;101755.59;;;3.33;100.00
11523;BME280;40093;43.224;27.910;2023-01-25T11:27:12;101792.06;;;3.32;100.00
11523;BME280;40093;43.224;27.910;2023-01-25T11:29:39;101795.00;;;3.35;100.00
11523;BME280;40093;43.224;27.910;2023-01-25T11:32:15;101783.06;;;3.18;100.00
11523;BME280;40093;43.224;27.910;2023-01-25T11:34:46;101774.69;;;2.96;100.00
11523;BME280;40093;43.224;27.910;2023-01-25T11:37:33;101752.72;;;2.92;100.00
11523;BME280;40093;43.224;27.910;2023-01-25T11:40:13;101772.03;;;2.91;100.00
11523;BME280;40093;43.224;27.910;2023-01-25T11:42:50;101740.44;;;2.95;100.00
11523;BME280;40093;43.224;27.910;2023-01-25T11:48:42;101769.69;;;3.03;100.00
11523;BME280;40093;43.224;27.910;2023-01-25T11:51:14;101759.03;;;2.88;100.00
11523;BME280;40093;43.224;27.910;2023-01-25T11:53:54;101778.53;;;2.95;100.00
11523;BME280;40093;43.224;27.910;2023-01-25T11:56:38;101758.22;;;2.69;100.00
11523;BME280;40093;43.224;27.910;2023-01-25T11:59:24;101753.38;;;2.84;100.00
11523;BME280;40093;43.224;27.910;2023-01-25T12:02:04;101774.56;;;2.87;100.00
11523;BME280;40093;43.224;27.910;2023-01-25T12:05:00;101735.44;;;2.83;100.00
11523;BME280;40093;43.224;27.910;2023-01-25T12:07:33;101753.75;;;2.78;100.00
11523;BME280;40093;43.224;27.910;2023-01-25T12:10:18;101750.81;;;2.93;100.00
11523;BME280;40093;43.224;27.910;2023-01-25T12:12:52;101740.50;;;2.90;100.00
11523;BME280;40093;43.224;27.910;2023-01-25T12:15:44;101729.47;;;3.00;100.00
11523;BME280;40093;43.224;27.910;2023-01-25T12:21:14;101734.78;;;2.91;100.00
11523;BME280;40093;43.224;27.910;2023-01-25T12:23:59;101728.97;;;2.98;100.00
11523;BME280;40093;43.224;27.910;2023-01-25T12:26:36;101717.16;;;2.89;100.00
11523;BME280;40093;43.224;27.910;2023-01-25T12:29:13;101738.41;;;2.87;100.00
11523;BME280;40093;43.224;27.910;2023-01-25T12:31:47;101754.34;;;2.75;100.00
11523;BME280;40093;43.224;27.910;2023-01-25T12:34:21;101729.75;;;2.66;100.00
11523;BME280;40093;43.224;27.910;2023-01-25T12:36:50;101750.38;;;2.67;100.00
11523;BME280;40093;43.224;27.910;2023-01-25T12:39:19;101744.84;;;2.91;100.00
11523;BME280;40093;43.224;27.910;2023-01-25T12:41:51;101758.44;;;3.09;100.00
11523;BME280;40093;43.224;27.910;2023-01-25T12:44:22;101750.25;;;3.28;100.00
11523;BME280;40093;43.224;27.910;2023-01-25T12:46:55;101750.66;;;3.35;100.00
11523;BME280;40093;43.224;27.910;2023-01-25T12:49:29;101747.25;;;3.43;100.00
11523;BME280;40093;43.224;27.910;2023-01-25T12:52:00;101758.19;;;3.56;100.00
11523;BME280;40093;43.224;27.910;2023-01-25T12:54:33;101755.94;;;3.45;100.00
11523;BME280;40093;43.224;27.910;2023-01-25T12:57:10;101761.84;;;3.65;100.00
11523;BME280;40093;43.224;27.910;2023-01-25T12:59:46;101749.34;;;3.78;100.00